Welcome to Northern Hawkes Bay. New Zealand.
PWS Header
      nz Flag



Hit Counter


W3C Valid W3C Valid logo


    Wairoa

Select any of the Stations below to visit their websites.










Historic Data from Weather Underground
Select the location of interest below. Wairoa is the default. Please have patience, this Data is slow to load in.
Northern Hawkes Bay Historical Data
Daily Summary for May 16, 2017 Units:  English    Metric   Both
« Previous Day
Next Day »
Daily Weekly Monthly Yearly Custom
  High: Low: Average:
Temperature: 69.4 °F 41 °F 51.4 °F
Dew Point: 54.3 °F 40.6 °F 46.6 °F
Humidity: 99% 46% 86%
Wind Speed: 0mph 0mph 0mph
Wind Gust: 0mph - -
Wind- - North
Pressure: 30.3 in 30.2 in -
Precipitation: 0 in    
Historical Graphs
 
 
Tabular Data for May 16, 2017
Time Temperature Dew Point Pressure Wind Wind Speed Wind Gust Humidity Rainfall Rate (Hourly) solar
00:00 45.3 °F 44.4 °F 30.3 in Calm     97% 0 in 0 W/m2
00:05 45.3 °F 44.4 °F 30.3 in Calm     97% 0 in 0 W/m2
00:10 45.1 °F 44.2 °F 30.3 in Calm     97% 0 in 0 W/m2
00:15 45.1 °F 44.2 °F 30.3 in Calm     97% 0 in 0 W/m2
00:20 45.1 °F 44.2 °F 30.3 in Calm     97% 0 in 0 W/m2
00:25 45 °F 44.2 °F 30.3 in Calm     97% 0 in 0 W/m2
00:30 45 °F 44.2 °F 30.3 in Calm     97% 0 in 0 W/m2
00:35 44.8 °F 44.1 °F 30.3 in Calm     97% 0 in 0 W/m2
00:40 44.8 °F 44.1 °F 30.3 in Calm     97% 0 in 0 W/m2
00:45 44.6 °F 43.9 °F 30.3 in Calm     97% 0 in 0 W/m2
00:50 44.8 °F 44.1 °F 30.3 in Calm     97% 0 in 0 W/m2
00:55 44.6 °F 43.9 °F 30.3 in Calm     97% 0 in 0 W/m2
01:00 44.6 °F 43.9 °F 30.3 in Calm     97% 0 in 0 W/m2
01:05 44.2 °F 43.7 °F 30.3 in Calm     98% 0 in 0 W/m2
01:10 44.1 °F 43.5 °F 30.3 in Calm     98% 0 in 0 W/m2
01:15 44.1 °F 43.5 °F 30.3 in Calm     98% 0 in 0 W/m2
01:20 44.1 °F 43.5 °F 30.3 in Calm     98% 0 in 0 W/m2
01:25 43.9 °F 43.3 °F 30.3 in Calm     98% 0 in 0 W/m2
01:30 43.7 °F 43.2 °F 30.3 in Calm     98% 0 in 0 W/m2
01:35 43.7 °F 43.2 °F 30.3 in Calm     98% 0 in 0 W/m2
01:40 43.5 °F 43 °F 30.3 in Calm     98% 0 in 0 W/m2
01:45 43.5 °F 43 °F 30.3 in Calm     98% 0 in 0 W/m2
01:50 43.3 °F 42.8 °F 30.3 in Calm     98% 0 in 0 W/m2
01:55 43.2 °F 42.6 °F 30.3 in Calm     98% 0 in 0 W/m2
02:00 43.2 °F 42.6 °F 30.3 in Calm     98% 0 in 0 W/m2
02:06 43 °F 42.4 °F 30.3 in Calm     98% 0 in 0 W/m2
02:11 43 °F 42.4 °F 30.3 in Calm     98% 0 in 0 W/m2
02:16 43 °F 42.4 °F 30.3 in Calm     98% 0 in 0 W/m2
02:21 43 °F 42.4 °F 30.3 in Calm     98% 0 in 0 W/m2
02:26 43 °F 42.4 °F 30.3 in Calm     98% 0 in 0 W/m2
02:31 42.8 °F 42.3 °F 30.3 in Calm     98% 0 in 0 W/m2
02:36 42.8 °F 42.3 °F 30.3 in Calm     98% 0 in 0 W/m2
02:41 42.8 °F 42.3 °F 30.3 in Calm     98% 0 in 0 W/m2
02:46 42.6 °F 42.4 °F 30.3 in Calm     99% 0 in 0 W/m2
02:51 42.6 °F 42.4 °F 30.3 in Calm     99% 0 in 0 W/m2
02:56 42.6 °F 42.4 °F 30.3 in Calm     99% 0 in 0 W/m2
03:01 42.4 °F 42.3 °F 30.3 in Calm     99% 0 in 0 W/m2
03:06 42.4 °F 42.3 °F 30.3 in Calm     99% 0 in 0 W/m2
03:11 42.3 °F 42.1 °F 30.3 in Calm     99% 0 in 0 W/m2
03:16 42.1 °F 41.7 °F 30.3 in Calm     99% 0 in 0 W/m2
03:21 42.1 °F 41.7 °F 30.3 in Calm     99% 0 in 0 W/m2
03:26 41.9 °F 41.5 °F 30.3 in Calm     99% 0 in 0 W/m2
03:31 42.1 °F 41.7 °F 30.3 in Calm     99% 0 in 0 W/m2
03:36 42.1 °F 41.7 °F 30.3 in Calm     99% 0 in 0 W/m2
03:41 41.9 °F 41.5 °F 30.3 in Calm     99% 0 in 0 W/m2
03:46 41.9 °F 41.5 °F 30.3 in Calm     99% 0 in 0 W/m2
03:51 41.9 °F 41.5 °F 30.3 in Calm     99% 0 in 0 W/m2
03:56 41.7 °F 41.5 °F 30.3 in Calm     99% 0 in 0 W/m2
04:01 41.7 °F 41.5 °F 30.3 in Calm     99% 0 in 0 W/m2
04:06 41.5 °F 41.4 °F 30.3 in Calm     99% 0 in 0 W/m2
04:11 41.4 °F 41.2 °F 30.3 in Calm     99% 0 in 0 W/m2
04:16 41.4 °F 41.2 °F 30.3 in Calm     99% 0 in 0 W/m2
04:21 41.5 °F 41.4 °F 30.3 in Calm     99% 0 in 0 W/m2
04:26 41.5 °F 41.4 °F 30.3 in Calm     99% 0 in 0 W/m2
04:31 41.5 °F 41.4 °F 30.3 in Calm     99% 0 in 0 W/m2
04:36 41.5 °F 41.4 °F 30.3 in Calm     99% 0 in 0 W/m2
04:41 41.7 °F 41.5 °F 30.3 in Calm     99% 0 in 0 W/m2
04:46 41.7 °F 41.5 °F 30.3 in Calm     99% 0 in 0 W/m2
04:51 41.7 °F 41.5 °F 30.3 in Calm     99% 0 in 0 W/m2
04:56 41.7 °F 41.5 °F 30.3 in Calm     99% 0 in 0 W/m2
05:01 41.7 °F 41.5 °F 30.3 in Calm     99% 0 in 0 W/m2
05:06 41.7 °F 41.5 °F 30.3 in Calm     99% 0 in 0 W/m2
05:11 41.7 °F 41.5 °F 30.3 in Calm     99% 0 in 0 W/m2
05:16 41.7 °F 41.5 °F 30.3 in Calm     99% 0 in 0 W/m2
05:21 41.7 °F 41.5 °F 30.3 in Calm     99% 0 in 0 W/m2
05:26 41.7 °F 41.5 °F 30.3 in Calm     99% 0 in 0 W/m2
05:31 41.5 °F 41.4 °F 30.3 in Calm     99% 0 in 0 W/m2
05:36 41.5 °F 41.4 °F 30.3 in Calm     99% 0 in 0 W/m2
05:41 41.5 °F 41.4 °F 30.3 in Calm     99% 0 in 0 W/m2
05:46 41.5 °F 41.4 °F 30.3 in Calm     99% 0 in 0 W/m2
05:51 41.5 °F 41.4 °F 30.3 in Calm     99% 0 in 0 W/m2
05:56 41.5 °F 41.4 °F 30.3 in Calm     99% 0 in 0 W/m2
06:01 41.5 °F 41.4 °F 30.3 in Calm     99% 0 in 0 W/m2
06:07 41.5 °F 41.4 °F 30.3 in Calm     99% 0 in 0 W/m2
06:12 41.5 °F 41.4 °F 30.3 in Calm     99% 0 in 0 W/m2
06:17 41.4 °F 41.2 °F 30.3 in Calm     99% 0 in 0 W/m2
06:22 41.4 °F 41.2 °F 30.3 in Calm     99% 0 in 0 W/m2
06:27 41.2 °F 40.8 °F 30.3 in Calm     99% 0 in 0 W/m2
06:32 41.2 °F 40.8 °F 30.3 in Calm     99% 0 in 0 W/m2
06:37 41.2 °F 40.8 °F 30.3 in Calm     99% 0 in 0 W/m2
06:42 41.2 °F 40.8 °F 30.3 in Calm     99% 0 in 0 W/m2
06:47 41.2 °F 40.8 °F 30.3 in Calm     99% 0 in 0 W/m2
06:52 41.4 °F 41.2 °F 30.3 in Calm     99% 0 in 0 W/m2
06:57 41.5 °F 41.4 °F 30.3 in Calm     99% 0 in 0 W/m2
07:02 41.4 °F 41.2 °F 30.3 in Calm     99% 0 in 0 W/m2
07:07 41.2 °F 40.8 °F 30.3 in Calm     99% 0 in 2 W/m2
07:12 41.2 °F 40.8 °F 30.3 in Calm     99% 0 in 5 W/m2
07:17 41 °F 40.6 °F 30.3 in Calm     99% 0 in 8 W/m2
07:22 41 °F 40.6 °F 30.3 in Calm     99% 0 in 12 W/m2
07:27 41.2 °F 40.8 °F 30.3 in Calm     99% 0 in 16 W/m2
07:32 41.2 °F 40.8 °F 30.3 in Calm     99% 0 in 22 W/m2
07:38 41.5 °F 41.4 °F 30.3 in Calm     99% 0 in 40 W/m2
07:43 41.7 °F 41.5 °F 30.3 in Calm     99% 0 in 43 W/m2
07:48 41.7 °F 41.5 °F 30.3 in Calm     99% 0 in 77 W/m2
07:54 42.4 °F 42.3 °F 30.3 in Calm     99% 0 in 107 W/m2
07:59 43 °F 42.4 °F 30.3 in Calm     98% 0 in 127 W/m2
08:04 43.5 °F 43 °F 30.3 in Calm     98% 0 in 142 W/m2
08:09 44.1 °F 43.5 °F 30.3 in Calm     98% 0 in 163 W/m2
08:14 43.9 °F 43.3 °F 30.3 in Calm     98% 0 in 64 W/m2
08:19 43.5 °F 42.6 °F 30.3 in Calm     97% 0 in 67 W/m2
08:24 43.5 °F 42.6 °F 30.3 in Calm     97% 0 in 74 W/m2
08:29 43.7 °F 43 °F 30.3 in Calm     97% 0 in 116 W/m2
08:34 44.4 °F 43.5 °F 30.3 in Calm     97% 0 in 211 W/m2
08:39 45.7 °F 44.6 °F 30.3 in Calm     96% 0 in 232 W/m2
08:44 46.2 °F 45 °F 30.3 in Calm     95% 0 in 251 W/m2
08:49 46.9 °F 45 °F 30.3 in Calm     93% 0 in 224 W/m2
08:54 47.5 °F 45 °F 30.3 in Calm     91% 0 in 223 W/m2
08:59 47.8 °F 44.8 °F 30.3 in Calm     89% 0 in 211 W/m2
09:04 47.8 °F 44.4 °F 30.3 in Calm     88% 0 in 108 W/m2
09:10 47.7 °F 44.1 °F 30.3 in Calm     87% 0 in 112 W/m2
09:15 47.5 °F 44.1 °F 30.3 in Calm     88% 0 in 115 W/m2
09:20 47.7 °F 44.1 °F 30.3 in Calm     87% 0 in 119 W/m2
09:25 47.7 °F 44.1 °F 30.3 in Calm     87% 0 in 148 W/m2
09:30 48.4 °F 44.4 °F 30.3 in Calm     86% 0 in 96 W/m2
09:35 49.3 °F 45 °F 30.3 in Calm     85% 0 in 87 W/m2
09:40 49.5 °F 45.1 °F 30.3 in Calm     85% 0 in 77 W/m2
09:45 49.6 °F 45 °F 30.3 in Calm     84% 0 in 89 W/m2
09:50 50.5 °F 45.7 °F 30.3 in Calm     83% 0 in 100 W/m2
09:55 51.3 °F 46 °F 30.3 in Calm     82% 0 in 97 W/m2
10:00 51.1 °F 45.5 °F 30.3 in Calm     81% 0 in 104 W/m2
10:05 52 °F 46.2 °F 30.3 in Calm     81% 0 in 99 W/m2
10:10 53.1 °F 46.8 °F 30.3 in Calm     79% 0 in 91 W/m2
10:15 53.1 °F 46 °F 30.3 in Calm     77% 0 in 97 W/m2
10:20 53.2 °F 46.2 °F 30.3 in Calm     77% 0 in 129 W/m2
10:25 53.4 °F 46.4 °F 30.3 in Calm     77% 0 in 139 W/m2
10:30 53.6 °F 46.2 °F 30.3 in Calm     76% 0 in 159 W/m2
10:35 53.8 °F 46 °F 30.3 in Calm     75% 0 in 210 W/m2
10:40 53.8 °F 46 °F 30.3 in Calm     75% 0 in 237 W/m2
10:45 54.7 °F 47.3 °F 30.3 in Calm     76% 0 in 315 W/m2
10:50 55.4 °F 48 °F 30.3 in Calm     76% 0 in 269 W/m2
10:55 55.6 °F 47.8 °F 30.3 in Calm     75% 0 in 290 W/m2
11:00 55.4 °F 48 °F 30.3 in Calm     76% 0 in 233 W/m2
11:05 55.4 °F 48 °F 30.3 in Calm     76% 0 in 221 W/m2
11:10 55.4 °F 48.4 °F 30.3 in Calm     77% 0 in 194 W/m2
11:15 55.6 °F 48.6 °F 30.3 in Calm     77% 0 in 229 W/m2
11:20 56.5 °F 49.6 °F 30.3 in Calm     78% 0 in 282 W/m2
11:25 57.4 °F 49.5 °F 30.3 in Calm     75% 0 in 249 W/m2
11:30 57.9 °F 50.2 °F 30.3 in Calm     75% 0 in 312 W/m2
11:35 57.9 °F 49.6 °F 30.3 in Calm     74% 0 in 313 W/m2
11:40 58.3 °F 50 °F 30.3 in Calm     74% 0 in 248 W/m2
11:45 58.3 °F 49.6 °F 30.3 in Calm     73% 0 in 223 W/m2
11:50 58.5 °F 50.2 °F 30.3 in Calm     74% 0 in 315 W/m2
11:55 59.7 °F 51.1 °F 30.3 in Calm     73% 0 in 303 W/m2
12:00 59.9 °F 50.2 °F 30.3 in Calm     70% 0 in 227 W/m2
12:05 59.7 °F 49.8 °F 30.3 in Calm     70% 0 in 200 W/m2
12:10 59.9 °F 50.2 °F 30.3 in Calm     70% 0 in 184 W/m2
12:15 59.4 °F 49.6 °F 30.3 in Calm     70% 0 in 181 W/m2
12:20 59 °F 49.6 °F 30.3 in Calm     71% 0 in 181 W/m2
12:25 59 °F 50 °F 30.3 in Calm     72% 0 in 206 W/m2
12:44 60.4 °F 51.1 °F 30.3 in Calm     71% 0 in 169 W/m2
12:49 60.4 °F 50.5 °F 30.3 in Calm     70% 0 in 189 W/m2
12:54 63 °F 52.5 °F 30.3 in Calm     69% 0 in 188 W/m2
12:59 66 °F 54.3 °F 30.3 in Calm     66% 0 in 172 W/m2
13:04 66.9 °F 52.2 °F 30.3 in Calm     59% 0 in 149 W/m2
13:09 67.1 °F 50.9 °F 30.3 in Calm     56% 0 in 120 W/m2
13:14 68.5 °F 51.8 °F 30.3 in Calm     55% 0 in 103 W/m2
13:20 67.8 °F 50.5 °F 30.3 in Calm     54% 0 in 98 W/m2
13:25 66.9 °F 50.2 °F 30.3 in Calm     55% 0 in 92 W/m2
13:30 67.8 °F 51.1 °F 30.3 in Calm     55% 0 in 92 W/m2
13:35 68.2 °F 49.8 °F 30.3 in Calm     52% 0 in 94 W/m2
13:40 66.2 °F 48.6 °F 30.3 in Calm     53% 0 in 104 W/m2
13:45 67.5 °F 48.7 °F 30.3 in Calm     51% 0 in 113 W/m2
13:50 67.1 °F 48.4 °F 30.3 in Calm     51% 0 in 124 W/m2
13:55 67.6 °F 48.4 °F 30.3 in Calm     50% 0 in 136 W/m2
14:00 69.1 °F 49.1 °F 30.3 in Calm     49% 0 in 143 W/m2
14:05 69.4 °F 47.8 °F 30.3 in Calm     46% 0 in 137 W/m2
14:10 68.5 °F 46.9 °F 30.3 in Calm     46% 0 in 152 W/m2
14:15 67.6 °F 47.3 °F 30.3 in Calm     48% 0 in 116 W/m2
14:20 64.6 °F 48.9 °F 30.3 in Calm     57% 0 in 106 W/m2
14:25 62.8 °F 49.6 °F 30.3 in Calm     62% 0 in 119 W/m2
14:30 61.7 °F 50.2 °F 30.3 in Calm     66% 0 in 110 W/m2
14:35 61 °F 50.4 °F 30.3 in Calm     68% 0 in 91 W/m2
14:40 60.4 °F 50.5 °F 30.3 in Calm     70% 0 in 88 W/m2
14:45 60.1 °F 50.4 °F 30.3 in Calm     70% 0 in 87 W/m2
14:50 60.3 °F 50.7 °F 30.3 in Calm     71% 0 in 131 W/m2
14:55 60.3 °F 50.7 °F 30.3 in Calm     71% 0 in 108 W/m2
15:00 60.4 °F 51.4 °F 30.3 in Calm     72% 0 in 142 W/m2
15:05 60.3 °F 51.6 °F 30.3 in Calm     73% 0 in 115 W/m2
15:10 60.3 °F 51.6 °F 30.3 in Calm     73% 0 in 66 W/m2
15:15 60.1 °F 51.4 °F 30.3 in Calm     73% 0 in 81 W/m2
15:20 60.3 °F 50.7 °F 30.3 in Calm     71% 0 in 91 W/m2
15:25 60.4 °F 50.5 °F 30.3 in Calm     70% 0 in 106 W/m2
15:30 61 °F 50.4 °F 30.3 in Calm     68% 0 in 137 W/m2
15:35 61.9 °F 50.7 °F 30.3 in Calm     67% 0 in 144 W/m2
15:40 64 °F 51.6 °F 30.3 in Calm     64% 0 in 144 W/m2
15:45 65.7 °F 53.2 °F 30.3 in Calm     64% 0 in 166 W/m2
15:50 68.2 °F 51.4 °F 30.3 in Calm     55% 0 in 138 W/m2
15:55 68.4 °F 50.5 °F 30.3 in Calm     53% 0 in 89 W/m2
16:00 68.4 °F 51.6 °F 30.3 in Calm     55% 0 in 57 W/m2
16:05 68 °F 50.4 °F 30.3 in Calm     53% 0 in 47 W/m2
16:10 66.4 °F 49.6 °F 30.3 in Calm     55% 0 in 44 W/m2
16:15 66.6 °F 49.8 °F 30.3 in Calm     55% 0 in 41 W/m2
16:20 65.8 °F 49.6 °F 30.3 in Calm     56% 0 in 27 W/m2
16:25 63.9 °F 49.3 °F 30.3 in Calm     59% 0 in 26 W/m2
16:30 62.6 °F 49.5 °F 30.3 in Calm     62% 0 in 25 W/m2
16:32 61.9 °F 49.6 °F 30.3 in Calm     64% 0 in 24 W/m2
16:37 60.4 °F 49.8 °F 30.3 in Calm     68% 0 in 20 W/m2
16:42 59.4 °F 49.6 °F 30.3 in Calm     70% 0 in 14 W/m2
16:47 58.5 °F 49.5 °F 30.3 in Calm     72% 0 in 9 W/m2
16:52 57.4 °F 48.7 °F 30.3 in Calm     73% 0 in 6 W/m2
16:57 56.8 °F 48.9 °F 30.3 in Calm     75% 0 in 4 W/m2
17:02 56.3 °F 48.7 °F 30.2 in Calm     76% 0 in 1 W/m2
17:07 55.9 °F 49.5 °F 30.2 in Calm     79% 0 in 0 W/m2
17:12 56.3 °F 50.9 °F 30.3 in Calm     82% 0 in 0 W/m2
17:17 56.5 °F 51.1 °F 30.2 in Calm     82% 0 in 0 W/m2
17:22 56.3 °F 50.5 °F 30.3 in Calm     81% 0 in 0 W/m2
17:27 55.6 °F 49.5 °F 30.2 in Calm     80% 0 in 0 W/m2
17:32 54.7 °F 48.9 °F 30.2 in Calm     81% 0 in 0 W/m2
17:37 54.3 °F 48.9 °F 30.2 in Calm     82% 0 in 0 W/m2
17:42 54 °F 48.6 °F 30.3 in Calm     82% 0 in 0 W/m2
17:47 53.8 °F 48.7 °F 30.2 in Calm     83% 0 in 0 W/m2
17:52 54 °F 49.8 °F 30.3 in Calm     86% 0 in 0 W/m2
17:57 54 °F 50.5 °F 30.3 in Calm     88% 0 in 0 W/m2
18:02 54.1 °F 50.7 °F 30.2 in Calm     88% 0 in 0 W/m2
18:07 54.1 °F 50.7 °F 30.2 in Calm     88% 0 in 0 W/m2
18:12 54.1 °F 50.7 °F 30.2 in Calm     88% 0 in 0 W/m2
18:17 53.6 °F 50.2 °F 30.2 in Calm     88% 0 in 0 W/m2
18:22 53.4 °F 50.4 °F 30.2 in Calm     89% 0 in 0 W/m2
18:27 53.2 °F 50.4 °F 30.2 in Calm     90% 0 in 0 W/m2
18:32 53.1 °F 50.5 °F 30.2 in Calm     91% 0 in 0 W/m2
18:37 52.9 °F 50.4 °F 30.2 in Calm     91% 0 in 0 W/m2
18:42 52.7 °F 50.2 °F 30.2 in Calm     91% 0 in 0 W/m2
18:47 52.7 °F 50.2 °F 30.2 in Calm     91% 0 in 0 W/m2
18:52 52.3 °F 49.8 °F 30.2 in Calm     91% 0 in 0 W/m2
18:57 52.2 °F 49.8 °F 30.2 in Calm     92% 0 in 0 W/m2
19:02 52.2 °F 49.8 °F 30.2 in Calm     92% 0 in 0 W/m2
19:07 52.2 °F 49.8 °F 30.2 in Calm     92% 0 in 0 W/m2
19:12 52.2 °F 49.8 °F 30.2 in Calm     92% 0 in 0 W/m2
19:17 52.2 °F 49.8 °F 30.2 in Calm     92% 0 in 0 W/m2
19:22 51.8 °F 49.6 °F 30.2 in Calm     92% 0 in 0 W/m2
19:27 51.6 °F 49.6 °F 30.2 in Calm     93% 0 in 0 W/m2
19:32 51.4 °F 49.5 °F 30.2 in Calm     93% 0 in 0 W/m2
19:37 51.3 °F 49.3 °F 30.2 in Calm     93% 0 in 0 W/m2
19:42 51.3 °F 49.3 °F 30.2 in Calm     93% 0 in 0 W/m2
19:47 51.1 °F 49.1 °F 30.2 in Calm     93% 0 in 0 W/m2
19:52 51.1 °F 49.5 °F 30.2 in Calm     94% 0 in 0 W/m2
19:57 51.1 °F 49.5 °F 30.2 in Calm     94% 0 in 0 W/m2
20:02 50.9 °F 49.3 °F 30.2 in Calm     94% 0 in 0 W/m2
20:07 50.9 °F 49.3 °F 30.2 in Calm     94% 0 in 0 W/m2
20:12 51.1 °F 49.5 °F 30.2 in Calm     94% 0 in 0 W/m2
20:17 51.1 °F 49.5 °F 30.2 in Calm     94% 0 in 0 W/m2
20:22 51.1 °F 49.5 °F 30.2 in Calm     94% 0 in 0 W/m2
20:27 51.1 °F 49.5 °F 30.2 in Calm     94% 0 in 0 W/m2
20:32 51.3 °F 49.6 °F 30.2 in Calm     94% 0 in 0 W/m2
20:37 51.3 °F 49.8 °F 30.2 in Calm     95% 0 in 0 W/m2
20:42 51.4 °F 50.2 °F 30.2 in Calm     95% 0 in 0 W/m2
20:47 51.4 °F 50.2 °F 30.2 in Calm     95% 0 in 0 W/m2
20:52 51.4 °F 49.8 °F 30.2 in Calm     94% 0 in 0 W/m2
20:57 51.3 °F 49.6 °F 30.2 in Calm     94% 0 in 0 W/m2
21:02 51.3 °F 49.6 °F 30.2 in Calm     94% 0 in 0 W/m2
21:07 51.3 °F 49.6 °F 30.2 in Calm     94% 0 in 0 W/m2
21:12 51.3 °F 49.6 °F 30.2 in Calm     94% 0 in 0 W/m2
21:17 51.3 °F 49.6 °F 30.2 in Calm     94% 0 in 0 W/m2
21:22 51.3 °F 49.6 °F 30.2 in Calm     94% 0 in 0 W/m2
21:27 51.3 °F 49.6 °F 30.2 in Calm     94% 0 in 0 W/m2
21:32 51.3 °F 49.6 °F 30.2 in Calm     94% 0 in 0 W/m2
21:37 51.3 °F 49.6 °F 30.2 in Calm     94% 0 in 0 W/m2
21:42 51.3 °F 49.6 °F 30.2 in Calm     94% 0 in 0 W/m2
21:47 51.1 °F 49.6 °F 30.2 in Calm     95% 0 in 0 W/m2
21:52 50.9 °F 49.3 °F 30.2 in Calm     94% 0 in 0 W/m2
21:57 50.9 °F 49.5 °F 30.2 in Calm     95% 0 in 0 W/m2
22:02 50.7 °F 49.3 °F 30.2 in Calm     95% 0 in 0 W/m2
22:07 50.9 °F 49.5 °F 30.3 in Calm     95% 0 in 0 W/m2
22:12 51.1 °F 49.6 °F 30.3 in Calm     95% 0 in 0 W/m2
22:17 51.3 °F 49.8 °F 30.3 in Calm     95% 0 in 0 W/m2
22:22 51.4 °F 50.2 °F 30.3 in Calm     95% 0 in 0 W/m2
22:27 51.6 °F 50.2 °F 30.2 in Calm     95% 0 in 0 W/m2
22:32 52 °F 50.4 °F 30.2 in Calm     94% 0 in 0 W/m2
22:37 52.2 °F 50.5 °F 30.2 in Calm     94% 0 in 0 W/m2
22:42 52.5 °F 50.7 °F 30.3 in Calm     94% 0 in 0 W/m2
22:47 52.9 °F 51.3 °F 30.2 in Calm     94% 0 in 0 W/m2
22:52 54.7 °F 51.8 °F 30.2 in Calm     90% 0 in 0 W/m2
22:57 56.1 °F 51.4 °F 30.2 in Calm     84% 0 in 0 W/m2
23:02 56.8 °F 50.4 °F 30.2 in Calm     79% 0 in 0 W/m2
23:07 57.4 °F 49.3 °F 30.2 in Calm     74% 0 in 0 W/m2
23:12 57.7 °F 49.3 °F 30.2 in Calm     73% 0 in 0 W/m2
23:17 58.1 °F 48.7 °F 30.2 in Calm     71% 0 in 0 W/m2
23:22 58.1 °F 48.4 °F 30.2 in Calm     70% 0 in 0 W/m2
23:27 58.1 °F 48 °F 30.2 in Calm     69% 0 in 0 W/m2
23:28 58.1 °F 48 °F 30.2 in Calm     69% 0 in 0 W/m2
23:33 58.1 °F 48 °F 30.2 in Calm     69% 0 in 0 W/m2
23:38 58.3 °F 47.8 °F 30.2 in Calm     68% 0 in 0 W/m2
23:43 58.3 °F 47.8 °F 30.2 in Calm     68% 0 in 0 W/m2
23:48 58.3 °F 47.5 °F 30.2 in Calm     67% 0 in 0 W/m2
23:53 58.3 °F 47.5 °F 30.2 in Calm     67% 0 in 0 W/m2
23:58 58.6 °F 47.3 °F 30.2 in Calm     66% 0 in 0 W/m2
Northern Hawkes Bay. New Zealand Historic Data
Compliments of Weather Underground - 2.25 mb